Time;durP1;ratioP1;P1;durP2;ratioP2;P2;SDS_P1;SDS_P2;PMS_P1;PMS_P2;Temp;Humidity;BMP_temperature;BMP_pressure;BME280_temperature;BME280_humidity;BME280_pressure;Samples;Min_cycle;Max_cycle;Signal;HPM_P1;HPM_P2
2022/04/29 00:01:32;;;;;;;;;10.75;4.75;;;;;;;;5033392;28;51164;-43
2022/04/29 00:04:17;;;;;;;;;7.25;4.00;;;;;;;;5041807;28;51182;-46
2022/04/29 00:07:01;;;;;;;;;6.50;5.00;;;;;;;;5036633;28;51081;-45
2022/04/29 00:09:47;;;;;;;;;4.00;3.25;;;;;;;;5037627;28;51444;-46
2022/04/29 00:12:32;;;;;;;;;7.00;4.75;;;;;;;;5041217;28;51157;-46
2022/04/29 00:15:18;;;;;;;;;6.00;4.00;;;;;;;;5038835;28;51160;-45
2022/04/29 00:18:02;;;;;;;;;1.25;1.25;;;;;;;;5032149;28;51545;-46
2022/04/29 00:20:51;;;;;;;;;5.25;3.25;;;;;;;;5034265;28;51128;-45
2022/04/29 00:23:37;;;;;;;;;3.00;3.00;;;;;;;;5039490;28;51393;-45
2022/04/29 00:26:21;;;;;;;;;5.50;3.50;;;;;;;;5037147;28;51094;-46
2022/04/29 00:29:07;;;;;;;;;8.00;5.00;;;;;;;;5043427;28;51980;-46
2022/04/29 00:31:51;;;;;;;;;4.25;3.00;;;;;;;;5041167;28;51118;-45
2022/04/29 00:34:38;;;;;;;;;4.50;3.00;;;;;;;;5046965;28;51552;-45
2022/04/29 00:37:22;;;;;;;;;5.25;2.75;;;;;;;;5040736;28;51192;-45
2022/04/29 00:40:12;;;;;;;;;5.25;3.25;;;;;;;;5045457;28;51082;-46
2022/04/29 00:42:59;;;;;;;;;4.25;1.50;;;;;;;;5037880;28;51493;-47
2022/04/29 00:45:43;;;;;;;;;7.00;3.00;;;;;;;;5042159;28;51069;-46
2022/04/29 00:48:28;;;;;;;;;5.50;3.00;;;;;;;;5043887;28;51124;-47
2022/04/29 00:51:14;;;;;;;;;4.00;3.00;;;;;;;;5043515;28;51062;-44
2022/04/29 00:53:58;;;;;;;;;6.75;1.75;;;;;;;;5047737;28;51204;-46
2022/04/29 00:56:43;;;;;;;;;1.75;1.50;;;;;;;;5043541;28;51113;-45
2022/04/29 00:59:29;;;;;;;;;6.50;4.00;;;;;;;;5042446;28;51177;-44
2022/04/29 01:02:15;;;;;;;;;4.00;3.50;;;;;;;;5035181;28;51038;-45
2022/04/29 01:05:09;;;;;;;;;9.50;5.25;;;;;;;;5047287;28;51168;-45
2022/04/29 01:08:03;;;;;;;;;7.25;3.75;;;;;;;;5046725;28;51178;-47
2022/04/29 01:11:02;;;;;;;;;4.50;3.75;;;;;;;;5042763;28;51230;-44
2022/04/29 01:13:47;;;;;;;;;9.50;4.50;;;;;;;;5039642;28;51135;-46
2022/04/29 01:16:32;;;;;;;;;3.25;2.00;;;;;;;;5038603;28;51189;-46
2022/04/29 01:19:16;;;;;;;;;7.00;3.75;;;;;;;;5043725;28;51394;-46
2022/04/29 01:22:01;;;;;;;;;6.50;4.00;;;;;;;;5040662;28;51300;-44
2022/04/29 01:24:50;;;;;;;;;4.00;4.00;;;;;;;;5039831;28;51398;-45
2022/04/29 01:27:35;;;;;;;;;4.25;2.00;;;;;;;;5037773;28;51140;-46
2022/04/29 01:30:20;;;;;;;;;7.25;5.00;;;;;;;;5042322;28;51039;-44
2022/04/29 01:33:07;;;;;;;;;6.00;3.75;;;;;;;;5040168;28;51277;-47
2022/04/29 01:35:55;;;;;;;;;6.50;3.75;;;;;;;;5042670;28;51174;-45
2022/04/29 01:38:42;;;;;;;;;10.50;3.75;;;;;;;;5042325;28;51464;-46
2022/04/29 01:41:29;;;;;;;;;10.50;5.75;;;;;;;;5043770;28;51141;-46
2022/04/29 01:44:14;;;;;;;;;12.25;5.75;;;;;;;;5044629;28;51067;-47
2022/04/29 01:46:59;;;;;;;;;3.25;2.75;;;;;;;;5036887;28;51098;-46
2022/04/29 01:49:43;;;;;;;;;5.50;3.50;;;;;;;;5038402;28;51546;-46
2022/04/29 01:52:28;;;;;;;;;5.00;4.00;;;;;;;;5037156;28;51150;-46
2022/04/29 01:55:12;;;;;;;;;6.00;3.75;;;;;;;;5039258;28;51153;-46
2022/04/29 01:58:03;;;;;;;;;7.50;2.75;;;;;;;;5046833;28;51148;-47
2022/04/29 02:00:49;;;;;;;;;9.00;4.50;;;;;;;;5049644;28;51100;-45
2022/04/29 02:03:34;;;;;;;;;4.75;4.50;;;;;;;;5032236;28;51363;-46
2022/04/29 02:06:21;;;;;;;;;6.00;4.25;;;;;;;;5042768;28;51498;-47
2022/04/29 02:09:07;;;;;;;;;9.00;5.75;;;;;;;;5041898;28;51419;-45
2022/04/29 02:12:07;;;;;;;;;5.75;3.00;;;;;;;;5042233;28;51135;-45
2022/04/29 02:14:51;;;;;;;;;8.75;5.50;;;;;;;;5039085;28;51447;-45
2022/04/29 02:17:37;;;;;;;;;4.50;3.00;;;;;;;;5042467;28;51211;-46
2022/04/29 02:20:24;;;;;;;;;7.00;4.50;;;;;;;;5037849;28;51000;-46
2022/04/29 02:23:10;;;;;;;;;5.00;3.75;;;;;;;;5043726;28;51131;-47
2022/04/29 02:26:00;;;;;;;;;4.00;3.50;;;;;;;;5040831;28;51021;-45
2022/04/29 02:28:46;;;;;;;;;6.00;3.00;;;;;;;;5038235;28;51472;-45
2022/04/29 02:31:31;;;;;;;;;5.50;4.50;;;;;;;;5036482;28;51148;-47
2022/04/29 02:34:15;;;;;;;;;3.75;2.25;;;;;;;;5037739;28;51121;-45
2022/04/29 02:37:03;;;;;;;;;5.00;5.00;;;;;;;;5038522;28;51490;-46
2022/04/29 02:39:47;;;;;;;;;4.00;0.00;;;;;;;;5044002;28;51157;-46
2022/04/29 02:42:34;;;;;;;;;5.00;3.50;;;;;;;;5042572;28;50979;-45
2022/04/29 02:45:19;;;;;;;;;5.50;4.00;;;;;;;;5040434;28;51130;-45
2022/04/29 02:48:04;;;;;;;;;8.75;6.00;;;;;;;;5036136;28;51410;-46
2022/04/29 02:50:51;;;;;;;;;7.75;5.25;;;;;;;;5039071;28;51216;-46
2022/04/29 02:53:41;;;;;;;;;5.75;4.25;;;;;;;;5041197;28;51462;-44
2022/04/29 02:56:30;;;;;;;;;7.00;4.75;;;;;;;;5041508;28;51215;-48
2022/04/29 02:59:23;;;;;;;;;7.25;5.25;;;;;;;;5040324;28;51288;-47
2022/04/29 03:02:07;;;;;;;;;4.75;4.75;;;;;;;;5037431;28;51546;-45
2022/04/29 03:04:53;;;;;;;;;7.00;4.25;;;;;;;;5038402;28;51023;-46
2022/04/29 03:07:38;;;;;;;;;5.75;4.50;;;;;;;;5038939;28;51204;-45
2022/04/29 03:10:26;;;;;;;;;10.50;2.50;;;;;;;;5038968;28;51107;-46
2022/04/29 03:13:13;;;;;;;;;6.00;5.00;;;;;;;;5042160;28;51434;-46
2022/04/29 03:16:04;;;;;;;;;5.75;5.00;;;;;;;;5037693;28;51115;-46
2022/04/29 03:18:49;;;;;;;;;5.75;2.75;;;;;;;;5044385;28;51463;-45
2022/04/29 03:21:44;;;;;;;;;8.25;5.25;;;;;;;;5037004;28;51114;-45
2022/04/29 03:24:31;;;;;;;;;5.50;1.25;;;;;;;;5038801;28;51218;-45
2022/04/29 03:27:19;;;;;;;;;5.25;4.00;;;;;;;;5039648;28;51196;-45
2022/04/29 03:30:10;;;;;;;;;5.50;5.00;;;;;;;;5039945;28;51434;-47
2022/04/29 03:32:56;;;;;;;;;5.00;5.00;;;;;;;;5035544;28;51172;-46
2022/04/29 03:35:43;;;;;;;;;6.00;3.00;;;;;;;;5040357;28;51165;-47
2022/04/29 03:38:27;;;;;;;;;4.75;3.50;;;;;;;;5040502;28;51126;-45
2022/04/29 03:41:13;;;;;;;;;9.50;4.25;;;;;;;;5040994;28;51188;-45
2022/04/29 03:43:57;;;;;;;;;9.00;5.50;;;;;;;;5035591;28;51160;-46
2022/04/29 03:46:43;;;;;;;;;3.75;3.25;;;;;;;;5035969;28;51137;-45
2022/04/29 03:49:36;;;;;;;;;8.25;5.25;;;;;;;;5039031;28;51158;-46
2022/04/29 03:52:22;;;;;;;;;9.00;5.00;;;;;;;;5037673;28;51393;-45
2022/04/29 03:55:07;;;;;;;;;9.25;6.00;;;;;;;;5038756;28;51469;-47
2022/04/29 03:57:53;;;;;;;;;7.25;4.25;;;;;;;;5040252;28;51179;-46
2022/04/29 04:00:40;;;;;;;;;8.25;4.50;;;;;;;;5037195;28;51058;-45
2022/04/29 04:03:28;;;;;;;;;8.00;6.75;;;;;;;;5037809;28;51445;-46
2022/04/29 04:09:20;;;;;;;;;8.50;8.25;;;;;;;;5044297;28;51089;-46
2022/04/29 04:12:05;;;;;;;;;8.00;6.25;;;;;;;;5039553;28;51133;-46
2022/04/29 04:14:50;;;;;;;;;8.75;6.25;;;;;;;;5045182;28;51149;-45
2022/04/29 04:17:38;;;;;;;;;11.00;7.75;;;;;;;;5041647;28;51116;-45
2022/04/29 04:20:57;;;;;;;;;16.25;9.75;;;;;;;;5041268;28;51082;-46
2022/04/29 04:23:41;;;;;;;;;13.75;7.50;;;;;;;;5044132;28;51414;-46
2022/04/29 04:26:30;;;;;;;;;10.75;6.75;;;;;;;;5039171;28;51195;-46
2022/04/29 04:29:14;;;;;;;;;8.50;5.25;;;;;;;;5044112;28;51071;-45
2022/04/29 04:32:00;;;;;;;;;10.75;7.50;;;;;;;;5040231;28;51155;-45
2022/04/29 04:34:52;;;;;;;;;9.25;5.00;;;;;;;;5040041;28;51155;-45
2022/04/29 04:37:37;;;;;;;;;9.50;6.00;;;;;;;;5042670;28;51128;-44
2022/04/29 04:40:22;;;;;;;;;8.00;8.00;;;;;;;;5042355;28;51131;-44
2022/04/29 04:43:12;;;;;;;;;7.75;5.75;;;;;;;;5042942;28;51128;-45
2022/04/29 04:45:58;;;;;;;;;10.75;6.50;;;;;;;;5044231;28;51474;-46
2022/04/29 04:48:45;;;;;;;;;11.25;7.50;;;;;;;;5042132;28;51002;-45
2022/04/29 04:51:30;;;;;;;;;10.75;5.25;;;;;;;;5040094;28;51232;-44
2022/04/29 04:54:36;;;;;;;;;5.75;5.75;;;;;;;;5039889;28;51553;-45
2022/04/29 04:57:20;;;;;;;;;12.00;6.50;;;;;;;;5044778;28;51124;-45
2022/04/29 05:00:07;;;;;;;;;11.75;8.75;;;;;;;;5036340;28;51440;-45
2022/04/29 05:02:53;;;;;;;;;6.75;5.75;;;;;;;;5040320;28;51191;-45
2022/04/29 05:05:44;;;;;;;;;13.00;7.00;;;;;;;;5039289;28;51201;-44
2022/04/29 05:08:32;;;;;;;;;7.75;5.50;;;;;;;;5048158;28;51122;-45
2022/04/29 05:11:16;;;;;;;;;11.75;7.50;;;;;;;;5039335;28;51145;-46
2022/04/29 05:14:01;;;;;;;;;6.75;4.75;;;;;;;;5035638;28;51005;-44
2022/04/29 05:16:47;;;;;;;;;12.75;7.75;;;;;;;;5040676;28;51037;-45
2022/04/29 05:19:39;;;;;;;;;12.50;8.25;;;;;;;;5038084;28;51106;-46
2022/04/29 05:22:30;;;;;;;;;14.00;9.00;;;;;;;;5042972;28;51190;-44
2022/04/29 05:25:17;;;;;;;;;9.50;8.25;;;;;;;;5039272;28;51403;-45
2022/04/29 05:28:02;;;;;;;;;11.75;8.00;;;;;;;;5039706;28;51183;-46
2022/04/29 05:30:48;;;;;;;;;15.00;10.50;;;;;;;;5049745;28;51058;-44
2022/04/29 05:33:45;;;;;;;;;14.00;8.50;;;;;;;;5037909;28;51318;-44
2022/04/29 05:36:30;;;;;;;;;12.50;6.50;;;;;;;;5038083;28;51005;-47
2022/04/29 05:42:31;;;;;;;;;14.75;8.00;;;;;;;;5039617;28;51490;-45
2022/04/29 05:45:20;;;;;;;;;8.75;6.00;;;;;;;;5037820;28;51525;-46
2022/04/29 05:48:05;;;;;;;;;7.50;5.50;;;;;;;;5038954;28;51082;-45
2022/04/29 05:50:49;;;;;;;;;8.50;4.75;;;;;;;;5038454;28;51175;-45
2022/04/29 05:53:34;;;;;;;;;7.25;5.25;;;;;;;;5040002;28;50983;-45
2022/04/29 05:56:18;;;;;;;;;12.75;8.00;;;;;;;;5039120;28;51062;-46
2022/04/29 05:59:03;;;;;;;;;4.75;4.75;;;;;;;;5039555;28;51214;-44
2022/04/29 06:01:51;;;;;;;;;6.25;5.00;;;;;;;;5044968;28;51486;-45
2022/04/29 06:04:36;;;;;;;;;11.25;6.50;;;;;;;;5035233;28;51150;-44
2022/04/29 06:07:30;;;;;;;;;6.00;3.50;;;;;;;;5039020;28;51137;-45
2022/04/29 06:10:19;;;;;;;;;13.00;6.00;;;;;;;;5039945;28;51197;-45
2022/04/29 06:13:05;;;;;;;;;6.00;5.75;;;;;;;;5036396;28;51217;-46
2022/04/29 06:15:50;;;;;;;;;9.00;6.75;;;;;;;;5036416;28;51160;-46
2022/04/29 06:18:35;;;;;;;;;8.25;5.50;;;;;;;;5041726;28;51174;-46
2022/04/29 06:21:21;;;;;;;;;10.00;7.00;;;;;;;;5042401;28;51104;-46
2022/04/29 06:24:06;;;;;;;;;13.00;7.25;;;;;;;;5041277;28;51249;-45
2022/04/29 06:27:06;;;;;;;;;7.75;4.00;;;;;;;;5041203;28;51162;-47
2022/04/29 06:29:52;;;;;;;;;9.50;6.50;;;;;;;;5039587;28;51048;-46
2022/04/29 06:32:39;;;;;;;;;5.25;5.00;;;;;;;;5039867;28;51034;-47
2022/04/29 06:35:23;;;;;;;;;8.00;6.50;;;;;;;;5037871;28;51386;-47
2022/04/29 06:38:09;;;;;;;;;5.00;3.75;;;;;;;;5040979;28;51116;-46
2022/04/29 06:40:53;;;;;;;;;8.75;4.75;;;;;;;;5039699;28;51109;-51
2022/04/29 06:43:58;;;;;;;;;9.00;4.75;;;;;;;;5039950;28;51152;-54
2022/04/29 06:46:46;;;;;;;;;6.75;5.75;;;;;;;;5035053;28;51335;-53
2022/04/29 06:49:31;;;;;;;;;4.25;2.25;;;;;;;;5035238;28;51121;-52
2022/04/29 06:52:16;;;;;;;;;3.50;2.50;;;;;;;;5037452;28;51153;-54
2022/04/29 06:55:01;;;;;;;;;6.50;6.25;;;;;;;;5037415;28;51197;-53
2022/04/29 06:57:49;;;;;;;;;5.00;5.00;;;;;;;;5039497;28;51168;-52
2022/04/29 07:00:56;;;;;;;;;5.00;4.00;;;;;;;;5038906;28;51510;-52
2022/04/29 07:03:40;;;;;;;;;5.50;3.75;;;;;;;;5038766;28;51261;-53
2022/04/29 07:06:27;;;;;;;;;7.25;5.00;;;;;;;;5039026;28;51106;-53
2022/04/29 07:09:14;;;;;;;;;7.00;5.00;;;;;;;;5039512;28;51078;-51
2022/04/29 07:12:03;;;;;;;;;5.50;4.25;;;;;;;;5039075;28;51500;-56
2022/04/29 07:14:47;;;;;;;;;6.00;3.00;;;;;;;;5038907;28;51194;-53
2022/04/29 07:17:32;;;;;;;;;5.00;4.50;;;;;;;;5039013;28;51096;-52
2022/04/29 07:20:16;;;;;;;;;7.25;5.00;;;;;;;;5038572;28;51155;-56
2022/04/29 07:23:03;;;;;;;;;4.50;2.50;;;;;;;;5038996;28;51030;-51
2022/04/29 07:25:50;;;;;;;;;4.25;3.50;;;;;;;;5038469;28;51143;-53
2022/04/29 07:28:36;;;;;;;;;5.75;3.75;;;;;;;;5038667;28;51133;-51
2022/04/29 07:31:27;;;;;;;;;3.50;2.25;;;;;;;;5038258;28;51383;-54
2022/04/29 07:34:12;;;;;;;;;4.25;2.50;;;;;;;;5038380;28;51149;-51
2022/04/29 07:43:04;;;;;;;;;4.25;2.50;;;;;;;;5043478;28;51026;-53
2022/04/29 07:45:54;;;;;;;;;7.25;2.00;;;;;;;;5042867;28;51050;-54
2022/04/29 07:48:40;;;;;;;;;2.00;2.00;;;;;;;;5043060;28;51133;-53
2022/04/29 07:51:26;;;;;;;;;3.75;1.50;;;;;;;;5042544;28;51373;-57
2022/04/29 07:54:10;;;;;;;;;6.00;1.25;;;;;;;;5041907;28;51074;-55
2022/04/29 07:56:55;;;;;;;;;8.00;4.00;;;;;;;;5042183;28;51444;-53
2022/04/29 07:59:40;;;;;;;;;4.50;4.50;;;;;;;;5037866;28;51045;-55
2022/04/29 08:02:29;;;;;;;;;2.50;2.50;;;;;;;;5038099;28;51461;-53
2022/04/29 08:05:15;;;;;;;;;0.00;0.00;;;;;;;;5041659;28;51116;-52
2022/04/29 08:08:00;;;;;;;;;3.75;1.25;;;;;;;;5042452;28;51326;-51
2022/04/29 08:10:46;;;;;;;;;3.50;2.25;;;;;;;;5036171;28;51065;-53
2022/04/29 08:13:30;;;;;;;;;5.25;4.25;;;;;;;;5042144;28;51094;-54
2022/04/29 08:16:17;;;;;;;;;2.00;2.00;;;;;;;;5041832;28;51443;-52
2022/04/29 08:19:04;;;;;;;;;5.25;3.75;;;;;;;;5041939;28;51247;-54
2022/04/29 08:21:49;;;;;;;;;4.75;2.00;;;;;;;;5041839;28;51330;-57
2022/04/29 08:24:36;;;;;;;;;3.25;3.00;;;;;;;;5042451;28;50985;-52
2022/04/29 08:27:22;;;;;;;;;4.00;2.50;;;;;;;;5042231;28;51181;-51
2022/04/29 08:30:11;;;;;;;;;9.00;7.25;;;;;;;;5042667;28;51247;-53
2022/04/29 08:32:57;;;;;;;;;11.25;10.00;;;;;;;;5042150;28;51058;-53
2022/04/29 08:35:45;;;;;;;;;5.75;4.75;;;;;;;;5040893;28;51303;-54
2022/04/29 08:38:55;;;;;;;;;6.00;2.00;;;;;;;;5042246;28;51138;-51
2022/04/29 08:41:40;;;;;;;;;4.00;3.25;;;;;;;;5041927;28;51955;-55
2022/04/29 08:44:31;;;;;;;;;1.00;1.00;;;;;;;;5041928;28;51248;-52
2022/04/29 08:47:27;;;;;;;;;3.25;1.50;;;;;;;;5041647;28;51358;-52
2022/04/29 08:50:15;;;;;;;;;2.25;1.50;;;;;;;;5041131;28;51098;-54
2022/04/29 08:53:00;;;;;;;;;5.75;3.00;;;;;;;;5041299;28;51160;-55
2022/04/29 08:58:49;;;;;;;;;5.00;3.00;;;;;;;;5038623;28;51321;-52
2022/04/29 09:01:34;;;;;;;;;4.75;2.00;;;;;;;;5041531;28;51241;-57
2022/04/29 09:04:21;;;;;;;;;2.00;1.50;;;;;;;;5041871;28;51504;-50
2022/04/29 09:07:25;;;;;;;;;4.00;2.00;;;;;;;;5041191;28;51131;-52
2022/04/29 09:10:10;;;;;;;;;2.50;1.25;;;;;;;;5041567;28;51276;-51
2022/04/29 09:12:56;;;;;;;;;4.00;2.75;;;;;;;;5040332;28;51200;-55
2022/04/29 09:16:02;;;;;;;;;9.75;2.00;;;;;;;;5041861;28;51057;-53
2022/04/29 09:18:58;;;;;;;;;2.50;1.00;;;;;;;;5041103;28;51370;-55
2022/04/29 09:21:46;;;;;;;;;5.50;3.50;;;;;;;;5041357;28;51106;-52
2022/04/29 09:24:30;;;;;;;;;2.00;2.00;;;;;;;;5040881;28;51402;-53
2022/04/29 09:27:15;;;;;;;;;5.75;3.50;;;;;;;;5040982;28;51148;-56
2022/04/29 09:29:59;;;;;;;;;4.25;2.75;;;;;;;;5041286;28;51082;-51
2022/04/29 09:32:48;;;;;;;;;2.00;2.00;;;;;;;;5040950;28;51428;-53
2022/04/29 09:35:37;;;;;;;;;3.50;2.50;;;;;;;;5040007;28;51083;-52
2022/04/29 09:41:28;;;;;;;;;3.00;2.00;;;;;;;;5040970;28;51078;-53
2022/04/29 09:44:38;;;;;;;;;2.25;2.25;;;;;;;;5040360;28;51539;-53
2022/04/29 09:47:26;;;;;;;;;3.00;1.25;;;;;;;;5040580;28;51108;-52
2022/04/29 09:50:14;;;;;;;;;5.25;2.00;;;;;;;;5040916;28;51090;-55
2022/04/29 09:53:15;;;;;;;;;4.00;2.00;;;;;;;;5040610;28;51235;-54
2022/04/29 09:56:25;;;;;;;;;5.75;1.50;;;;;;;;5039829;28;51135;-53
2022/04/29 09:59:11;;;;;;;;;3.00;3.00;;;;;;;;5040338;28;51525;-55
2022/04/29 10:01:57;;;;;;;;;3.25;3.00;;;;;;;;5032745;28;51121;-51
2022/04/29 10:04:42;;;;;;;;;2.00;2.00;;;;;;;;5038017;28;51042;-54
2022/04/29 10:07:31;;;;;;;;;1.50;1.00;;;;;;;;5039600;28;51184;-54
2022/04/29 10:10:20;;;;;;;;;1.75;1.00;;;;;;;;5039641;28;51061;-53
2022/04/29 10:13:07;;;;;;;;;3.75;2.25;;;;;;;;5040196;28;51109;-50
2022/04/29 10:15:53;;;;;;;;;3.50;1.00;;;;;;;;5039977;28;51504;-51
2022/04/29 10:21:45;;;;;;;;;1.50;1.50;;;;;;;;5039292;28;51132;-53
2022/04/29 10:24:31;;;;;;;;;2.25;2.25;;;;;;;;5039806;28;51916;-52
2022/04/29 10:27:18;;;;;;;;;2.75;1.75;;;;;;;;5040093;28;51166;-52
2022/04/29 10:30:05;;;;;;;;;3.75;2.25;;;;;;;;5038667;28;51156;-49
2022/04/29 10:33:13;;;;;;;;;3.75;2.25;;;;;;;;5039764;28;51121;-55
2022/04/29 10:36:06;;;;;;;;;2.00;2.00;;;;;;;;5039441;28;50964;-51
2022/04/29 10:39:00;;;;;;;;;3.00;2.00;;;;;;;;5038739;28;51034;-52
2022/04/29 10:42:18;;;;;;;;;1.00;1.00;;;;;;;;5038791;28;51425;-53
2022/04/29 10:45:11;;;;;;;;;2.25;2.25;;;;;;;;5022592;28;51087;-55
2022/04/29 10:47:57;;;;;;;;;3.25;2.25;;;;;;;;5039592;28;51141;-53
2022/04/29 10:50:43;;;;;;;;;4.00;2.50;;;;;;;;5038190;28;51054;-55
2022/04/29 10:53:36;;;;;;;;;6.00;3.75;;;;;;;;5039493;28;51089;-54
2022/04/29 10:56:30;;;;;;;;;4.25;3.00;;;;;;;;5039370;28;51078;-54
2022/04/29 10:59:18;;;;;;;;;7.50;3.00;;;;;;;;5039068;28;51147;-53
2022/04/29 11:02:13;;;;;;;;;2.75;2.00;;;;;;;;5037157;28;52128;-51
2022/04/29 11:05:29;;;;;;;;;3.75;0.75;;;;;;;;5038263;28;51080;-51
2022/04/29 11:08:13;;;;;;;;;1.75;0.25;;;;;;;;5038822;28;51309;-51
2022/04/29 11:10:58;;;;;;;;;1.75;0.00;;;;;;;;5036733;28;51192;-50
2022/04/29 11:13:47;;;;;;;;;2.75;1.00;;;;;;;;5034762;28;51019;-55
2022/04/29 11:16:48;;;;;;;;;3.00;0.25;;;;;;;;5037742;28;50998;-56
2022/04/29 11:19:40;;;;;;;;;8.25;1.25;;;;;;;;5038736;28;51168;-51
2022/04/29 11:25:48;;;;;;;;;4.50;2.50;;;;;;;;5039326;28;51033;-53
2022/04/29 11:28:34;;;;;;;;;3.25;2.00;;;;;;;;5038502;28;51148;-50
2022/04/29 11:31:20;;;;;;;;;3.75;0.75;;;;;;;;5038921;28;51053;-55
2022/04/29 11:34:16;;;;;;;;;1.50;1.50;;;;;;;;5038738;28;51133;-51
2022/04/29 11:37:01;;;;;;;;;2.25;2.00;;;;;;;;5038555;28;51079;-52
2022/04/29 11:39:46;;;;;;;;;2.75;1.00;;;;;;;;5037438;28;51065;-52
2022/04/29 11:42:31;;;;;;;;;1.75;1.00;;;;;;;;5037785;28;51464;-51
2022/04/29 11:45:31;;;;;;;;;1.00;1.00;;;;;;;;5034208;28;51561;-51
2022/04/29 11:48:16;;;;;;;;;1.00;1.00;;;;;;;;5038741;28;51110;-51
2022/04/29 11:51:06;;;;;;;;;1.00;0.00;;;;;;;;5032494;28;51020;-51
2022/04/29 11:54:01;;;;;;;;;0.75;0.75;;;;;;;;5032223;28;51652;-53
2022/04/29 11:56:45;;;;;;;;;2.25;2.00;;;;;;;;5035953;28;51088;-50
2022/04/29 11:59:32;;;;;;;;;2.25;1.25;;;;;;;;5037403;28;51419;-50
2022/04/29 12:02:20;;;;;;;;;1.00;0.25;;;;;;;;5031538;28;51136;-51
2022/04/29 12:05:06;;;;;;;;;2.00;0.00;;;;;;;;5038133;28;51179;-51
2022/04/29 12:07:51;;;;;;;;;0.50;0.50;;;;;;;;5038299;28;51416;-51
2022/04/29 12:10:37;;;;;;;;;2.50;1.50;;;;;;;;5038128;28;51141;-52
2022/04/29 12:13:28;;;;;;;;;2.75;1.75;;;;;;;;5037345;28;51091;-52
2022/04/29 12:16:12;;;;;;;;;1.75;1.50;;;;;;;;5037133;28;51063;-51
2022/04/29 12:18:56;;;;;;;;;3.00;1.25;;;;;;;;5036276;28;51440;-52
2022/04/29 12:21:52;;;;;;;;;5.75;3.00;;;;;;;;5037132;28;51120;-54
2022/04/29 12:24:45;;;;;;;;;2.25;1.00;;;;;;;;5039495;28;51052;-52
2022/04/29 12:27:30;;;;;;;;;1.50;1.50;;;;;;;;5041480;28;51149;-55
2022/04/29 12:37:12;;;;;;;;;5.75;2.00;;;;;;;;5019066;28;51460;-49
2022/04/29 12:40:04;;;;;;;;;8.50;1.50;;;;;;;;5024691;28;51103;-49
2022/04/29 12:42:51;;;;;;;;;0.25;0.25;;;;;;;;5041005;28;51169;-50
2022/04/29 12:45:39;;;;;;;;;5.50;2.50;;;;;;;;5040609;28;51125;-50
2022/04/29 12:48:32;;;;;;;;;4.00;1.25;;;;;;;;5041263;28;51118;-49
2022/04/29 12:51:24;;;;;;;;;3.00;2.00;;;;;;;;5040807;28;51310;-48
2022/04/29 12:54:23;;;;;;;;;2.50;0.00;;;;;;;;5038865;28;51163;-51
2022/04/29 12:57:09;;;;;;;;;0.75;0.00;;;;;;;;5039320;28;51085;-48
2022/04/29 12:59:54;;;;;;;;;6.50;2.00;;;;;;;;5039355;28;52387;-52
2022/04/29 13:02:38;;;;;;;;;4.50;3.25;;;;;;;;5040550;28;51508;-49
2022/04/29 13:05:25;;;;;;;;;5.75;2.25;;;;;;;;5038317;28;51243;-49
2022/04/29 13:08:10;;;;;;;;;3.25;2.00;;;;;;;;5039494;28;51148;-50
2022/04/29 13:10:55;;;;;;;;;1.00;0.00;;;;;;;;5039735;28;51640;-51
2022/04/29 13:13:40;;;;;;;;;1.00;1.00;;;;;;;;5038215;28;50944;-50
2022/04/29 13:16:24;;;;;;;;;2.00;2.00;;;;;;;;5039604;28;51437;-53
2022/04/29 13:19:12;;;;;;;;;1.00;1.00;;;;;;;;5039191;28;51114;-52
2022/04/29 13:21:57;;;;;;;;;3.50;1.75;;;;;;;;5039757;28;51238;-51
2022/04/29 13:24:43;;;;;;;;;1.50;1.00;;;;;;;;5039874;28;51331;-52
2022/04/29 13:27:29;;;;;;;;;1.75;1.75;;;;;;;;5039666;28;51458;-54
2022/04/29 13:30:14;;;;;;;;;4.50;1.00;;;;;;;;5039924;28;51071;-48
2022/04/29 13:33:06;;;;;;;;;2.00;2.00;;;;;;;;5039778;28;51166;-53
2022/04/29 13:35:53;;;;;;;;;3.00;1.50;;;;;;;;5039853;28;51591;-55
2022/04/29 13:38:37;;;;;;;;;3.25;0.00;;;;;;;;5038848;28;51176;-53
2022/04/29 13:41:24;;;;;;;;;1.75;0.50;;;;;;;;5038966;28;51992;-52
2022/04/29 13:44:09;;;;;;;;;1.50;1.50;;;;;;;;5037625;28;51213;-51
2022/04/29 13:46:53;;;;;;;;;2.00;1.25;;;;;;;;5039253;28;51164;-50
2022/04/29 13:49:37;;;;;;;;;2.25;1.50;;;;;;;;5037301;28;51082;-54
2022/04/29 13:55:27;;;;;;;;;1.50;1.00;;;;;;;;5038428;28;51366;-56
2022/04/29 13:58:13;;;;;;;;;1.75;0.75;;;;;;;;5039936;28;51306;-50
2022/04/29 14:00:57;;;;;;;;;2.25;2.25;;;;;;;;5038110;28;52011;-51
2022/04/29 14:03:47;;;;;;;;;6.50;2.25;;;;;;;;5039301;28;51198;-54
2022/04/29 14:06:32;;;;;;;;;3.75;0.50;;;;;;;;5037937;28;51402;-54
2022/04/29 14:09:17;;;;;;;;;4.00;1.75;;;;;;;;5039749;28;52113;-55
2022/04/29 14:12:01;;;;;;;;;2.75;1.00;;;;;;;;5040817;28;51192;-51
2022/04/29 14:14:49;;;;;;;;;1.75;1.75;;;;;;;;5041756;28;51485;-53
2022/04/29 14:17:33;;;;;;;;;5.75;4.00;;;;;;;;5037965;28;51174;-53
2022/04/29 14:20:20;;;;;;;;;4.25;2.25;;;;;;;;5039431;28;51218;-49
2022/04/29 14:23:07;;;;;;;;;1.25;1.00;;;;;;;;5039976;28;51015;-52
2022/04/29 14:26:02;;;;;;;;;6.25;5.00;;;;;;;;5039499;28;51436;-55
2022/04/29 14:28:46;;;;;;;;;3.50;2.00;;;;;;;;5038343;28;51144;-51
2022/04/29 14:31:32;;;;;;;;;4.00;1.50;;;;;;;;5039375;28;51078;-52
2022/04/29 14:34:16;;;;;;;;;2.50;1.25;;;;;;;;5039401;28;51097;-52
2022/04/29 14:37:02;;;;;;;;;1.50;1.00;;;;;;;;5038895;28;51197;-52
2022/04/29 14:39:56;;;;;;;;;5.00;1.50;;;;;;;;5039054;28;51121;-52
2022/04/29 14:42:43;;;;;;;;;2.25;1.00;;;;;;;;5039593;28;51302;-49
2022/04/29 14:45:28;;;;;;;;;4.00;1.50;;;;;;;;5039150;28;51116;-55
2022/04/29 14:48:13;;;;;;;;;2.75;1.75;;;;;;;;5038593;28;51079;-49
2022/04/29 14:50:57;;;;;;;;;3.00;3.00;;;;;;;;5038108;28;51510;-49
2022/04/29 14:53:42;;;;;;;;;2.25;1.00;;;;;;;;5039384;28;51195;-51
2022/04/29 14:56:28;;;;;;;;;4.25;3.00;;;;;;;;5039183;28;51494;-52
2022/04/29 14:59:13;;;;;;;;;5.25;1.00;;;;;;;;5038562;28;51169;-53
2022/04/29 15:01:58;;;;;;;;;4.00;1.00;;;;;;;;5037443;28;51162;-53
2022/04/29 15:04:45;;;;;;;;;4.00;2.00;;;;;;;;5038908;28;51376;-52
2022/04/29 15:07:30;;;;;;;;;3.25;1.50;;;;;;;;5037684;28;51488;-52
2022/04/29 15:16:25;;;;;;;;;1.00;1.00;;;;;;;;5036544;28;51110;-49
2022/04/29 15:19:09;;;;;;;;;2.50;2.50;;;;;;;;5038269;28;51200;-50
2022/04/29 15:21:56;;;;;;;;;4.25;1.00;;;;;;;;5039291;28;51189;-49
2022/04/29 15:24:43;;;;;;;;;1.75;1.75;;;;;;;;5038179;28;51097;-52
2022/04/29 15:27:37;;;;;;;;;4.75;2.50;;;;;;;;5038817;28;51200;-51
2022/04/29 15:30:41;;;;;;;;;3.50;1.50;;;;;;;;5038432;28;51165;-49
2022/04/29 15:33:47;;;;;;;;;6.00;2.00;;;;;;;;5038631;28;51323;-52
2022/04/29 15:36:33;;;;;;;;;4.00;2.25;;;;;;;;5032826;28;51104;-50
2022/04/29 15:39:21;;;;;;;;;4.25;1.00;;;;;;;;5039319;28;51204;-50
2022/04/29 15:42:16;;;;;;;;;3.50;2.75;;;;;;;;5040750;28;51516;-50
2022/04/29 15:45:09;;;;;;;;;2.00;0.50;;;;;;;;5028499;28;51330;-51
2022/04/29 15:47:55;;;;;;;;;2.75;2.00;;;;;;;;5029590;28;51122;-52
2022/04/29 15:50:40;;;;;;;;;6.50;3.25;;;;;;;;5034813;28;51307;-49
2022/04/29 15:53:31;;;;;;;;;3.50;1.25;;;;;;;;5034569;28;51360;-52
2022/04/29 15:56:16;;;;;;;;;1.50;1.50;;;;;;;;5035538;28;51504;-50
2022/04/29 15:59:02;;;;;;;;;0.50;0.50;;;;;;;;5036436;28;51171;-50
2022/04/29 16:01:50;;;;;;;;;3.00;0.75;;;;;;;;5040313;28;51178;-52
2022/04/29 16:04:34;;;;;;;;;3.25;2.25;;;;;;;;5039601;28;50968;-54
2022/04/29 16:07:18;;;;;;;;;1.00;1.00;;;;;;;;5041301;28;51202;-50
2022/04/29 16:10:03;;;;;;;;;3.75;1.50;;;;;;;;5040365;28;51114;-51
2022/04/29 16:12:52;;;;;;;;;1.00;1.00;;;;;;;;5041052;28;51172;-52
2022/04/29 16:15:39;;;;;;;;;11.50;6.00;;;;;;;;5041810;28;51144;-48
2022/04/29 16:21:48;;;;;;;;;3.75;2.25;;;;;;;;5040619;28;51487;-52
2022/04/29 16:27:39;;;;;;;;;6.00;4.00;;;;;;;;5036555;28;51081;-50
2022/04/29 16:30:24;;;;;;;;;5.75;1.75;;;;;;;;5038682;28;51136;-50
2022/04/29 16:33:09;;;;;;;;;4.25;2.50;;;;;;;;5036400;28;51148;-51
2022/04/29 16:35:57;;;;;;;;;3.00;3.00;;;;;;;;5034248;28;51222;-49
2022/04/29 16:38:54;;;;;;;;;7.00;3.50;;;;;;;;5038694;28;51388;-52
2022/04/29 16:41:40;;;;;;;;;3.50;3.00;;;;;;;;5036622;28;51744;-48
2022/04/29 16:44:31;;;;;;;;;5.25;3.00;;;;;;;;5036925;28;51027;-50
2022/04/29 16:47:19;;;;;;;;;3.00;3.00;;;;;;;;5027867;28;51144;-52
2022/04/29 16:50:03;;;;;;;;;4.00;4.00;;;;;;;;5042834;28;51160;-51
2022/04/29 16:52:52;;;;;;;;;3.75;3.00;;;;;;;;5037593;28;51201;-51
2022/04/29 16:55:41;;;;;;;;;5.25;3.25;;;;;;;;5035856;28;51171;-52
2022/04/29 16:58:45;;;;;;;;;7.00;4.00;;;;;;;;5014955;28;51504;-52
2022/04/29 17:01:30;;;;;;;;;2.00;2.00;;;;;;;;5021507;28;51250;-49
2022/04/29 17:04:15;;;;;;;;;2.75;2.75;;;;;;;;5038366;28;51261;-52
2022/04/29 17:07:01;;;;;;;;;24.00;16.50;;;;;;;;5040265;28;51152;-50
2022/04/29 17:09:46;;;;;;;;;9.75;7.00;;;;;;;;5039782;28;51207;-49
2022/04/29 17:12:33;;;;;;;;;7.25;6.50;;;;;;;;5038896;28;51138;-51
2022/04/29 17:15:22;;;;;;;;;4.25;2.25;;;;;;;;5034721;28;51374;-50
2022/04/29 17:18:09;;;;;;;;;11.25;8.75;;;;;;;;5040387;28;51220;-48
2022/04/29 17:20:55;;;;;;;;;13.75;12.25;;;;;;;;5040077;28;51235;-51
2022/04/29 17:23:39;;;;;;;;;14.25;11.25;;;;;;;;5035103;28;51239;-49
2022/04/29 17:26:24;;;;;;;;;14.00;11.50;;;;;;;;5031143;28;51215;-53
2022/04/29 17:29:08;;;;;;;;;8.00;8.00;;;;;;;;5037431;28;51759;-49
2022/04/29 17:31:53;;;;;;;;;15.50;10.50;;;;;;;;5027830;28;51188;-48